TAF Text Data
IDs:
Format:
Raw Decoded Include METAR

Data at: 0229 UTC 29 Nov 2020

Region: TOP
KATL 290158Z 2902/3006 35006KT P6SM BKN200
  FM290400 07005KT P6SM BKN250
  FM290800 08005KT P6SM BKN015
  FM291000 09005KT P6SM BKN006
  FM291600 11007KT P6SM VCSH BKN008
  FM291900 11010KT 4SM -RA BR OVC006


KBOS 282320Z 2900/3006 29010KT P6SM FEW100
  FM290400 27006KT P6SM FEW250
  FM291500 24006KT P6SM SKC
  FM300100 21005KT P6SM FEW250


KBWI 282326Z 2900/3006 32005KT P6SM FEW250
  FM290300 VRB03KT P6SM FEW250
  FM291600 20007KT P6SM SCT250
  FM292200 15005KT P6SM BKN250


KCLE 282338Z 2900/3006 21013KT P6SM SKC
  FM300400 19005KT P6SM BKN110


KCLT 290152Z 2902/3006 06004KT P6SM SCT250
  FM291500 10004KT P6SM SCT050 BKN250
  FM292100 08004KT P6SM OVC045
  PROB30 2921/2924 4SM -SHRA BR OVC025
  FM300000 07005KT P6SM RA OVC025
  FM300200 06006KT 6SM RA BR OVC015


KCVG 282331Z 2900/3006 VRB02KT P6SM SKC
  FM291500 16004KT P6SM SCT250
  FM292200 17004KT P6SM BKN150
  FM300200 VRB03KT P6SM OVC070
  FM300400 34004KT P6SM VCSH OVC050


KDCA 282326Z 2900/3006 34005KT P6SM FEW250
  FM290500 VRB03KT P6SM FEW250
  FM291600 18007KT P6SM SCT250
  FM292200 15006KT P6SM BKN250


KDEN 282327Z 2900/3006 15007KT P6SM SKC
  FM290300 20007KT P6SM SKC
  FM290800 34012KT P6SM FEW060
  FM291200 30006KT P6SM FEW060
  FM291700 05006KT P6SM SCT200
  FM300000 15007KT P6SM FEW220


KDFW 290207Z 2902/3006 32008KT 3SM -SHRA BR SCT004 BKN008 OVC012
  FM290600 33007KT 4SM BR VCSH OVC006
  FM291400 34010KT P6SM OVC015
  FM292000 33015G25KT P6SM BKN025
  FM300000 34017KT P6SM BKN050


KDTW 282320Z 2900/3006 22009KT P6SM SCT250
  FM291600 21010KT P6SM BKN200
  FM300400 31007KT P6SM OVC120


KEWR 282322Z 2900/3006 32009KT P6SM FEW060
  FM290900 25006KT P6SM SKC
  FM291800 22008KT P6SM SKC
  FM300500 VRB04KT P6SM FEW035 BKN250


KFLL 282320Z 2900/3006 VRB03KT P6SM FEW025 SCT250
  FM291500 14010KT P6SM SCT030 SCT050
  FM300000 17005KT P6SM SCT030 SCT050


KIAD 282326Z 2900/3006 34005KT P6SM FEW250
  FM290300 VRB03KT P6SM FEW250
  FM291600 18007KT P6SM SCT250
  FM292200 15005KT P6SM BKN250


KIAH 290215Z 2902/3006 08007KT 6SM -RA BR OVC004
  FM290600 04005KT 6SM -RA BR OVC005
  FM291500 33012KT P6SM BKN015 BKN025
  FM291700 33013G23KT P6SM SCT015 BKN025
  FM291900 33015G25KT P6SM SCT025
  FM300100 34013KT P6SM SCT035


KJFK 282322Z 2900/3006 32009KT P6SM FEW060
  FM290900 26007KT P6SM SKC
  FM291800 23009KT P6SM SKC
  FM300500 18006KT P6SM FEW035 BKN250


KLAS 290228Z 2902/3006 23006KT P6SM SKC
  FM291800 05005KT P6SM SKC
  FM300200 25006KT P6SM FEW250


KLAX 282335Z 2900/3006 27009KT P6SM SKC
  FM290400 VRB03KT P6SM SKC
  FM290900 06003KT P6SM SKC
  FM292000 26009KT P6SM SKC
  FM300300 26005KT P6SM SKC


KLGA 282322Z 2900/3006 32009KT P6SM FEW060
  FM290900 25006KT P6SM SKC
  FM291800 22008KT P6SM SKC
  FM300500 17005KT P6SM FEW035 BKN250


KMCO 282336Z 2900/3006 30003KT P6SM FEW050 SCT100
  FM290800 VRB02KT P6SM MIFG SCT005 BKN100
  FM291500 18007KT P6SM SCT030 BKN080


KMDW 282334Z 2900/3006 23010KT P6SM SKC
  FM291200 24010KT P6SM SCT250
  FM291800 30013G20KT P6SM FEW025 BKN200
  FM300000 34016G25KT P6SM FEW025 BKN035


KMEM 282337Z 2900/3006 04004KT P6SM OVC200
  FM291600 VRB04KT P6SM VCSH BKN050 OVC120
  FM291900 34007KT P6SM -SHRA BKN025 OVC045
  FM300000 36010KT P6SM -RA OVC015


KMIA 282320Z 2900/3006 VRB02KT P6SM FEW030 SCT250
  FM291600 14008KT P6SM SCT030 SCT050
  FM300000 16005KT P6SM SCT030 SCT050


KMSP 282320Z 2900/3006 23007KT P6SM SKC
  FM290800 29010KT P6SM BKN150
  FM291100 31020G27KT P6SM SCT028 BKN050
  FM291800 32020G30KT P6SM BKN070


KORD 282334Z 2900/3006 23010KT P6SM SKC
  FM291200 24010KT P6SM SCT250
  FM291800 30013G20KT P6SM FEW025 BKN200
  FM300000 34016G25KT P6SM FEW025 BKN035


KPDX 282320Z 2900/2924 31003KT P6SM BKN007 OVC012
  FM290500 VRB02KT 4SM BR OVC007
  FM290900 VRB02KT 2SM BR OVC005
  FM291900 11004KT P6SM SCT005 BKN035


KPHL 282320Z 2900/3006 30008KT P6SM FEW250
  FM290600 VRB04KT P6SM FEW250
  FM291400 25006KT P6SM SKC
  FM292100 20006KT P6SM FEW250
  FM300500 VRB04KT P6SM BKN200


KPHX 282320Z 2900/3006 28005KT P6SM SKC
  FM290500 10004KT P6SM SKC
  FM292200 29005KT P6SM SKC
  FM300400 08006KT P6SM SKC


KPIT 282327Z 2900/3006 23004KT P6SM SKC
  FM291000 20003KT P6SM SKC
  FM291500 20007KT P6SM SCT250
  FM300000 15003KT P6SM BKN200


KSAN 282320Z 2900/3006 30008KT P6SM SKC
  FM290200 VRB03KT P6SM SKC
  FM292000 30008KT P6SM SKC
  FM300200 VRB03KT P6SM SKC


KSEA 282320Z 2900/3006 05005KT P6SM SCT020 BKN040 BKN250
  TEMPO 2900/2902 BKN020 OVC040
  FM290300 05003KT P6SM BKN250
  FM291300 06003KT 4SM BR SCT003 BKN250
  TEMPO 2913/2917 1/2SM FG OVC003
  FM292000 13004KT P6SM BKN090 BKN250
  FM300200 14008KT P6SM OVC070


KSFO 282337Z 2900/3006 VRB03KT P6SM SKC
  FM290200 29007KT P6SM SKC
  FM290500 VRB03KT P6SM SKC
  FM292200 31008KT P6SM SKC
  FM300500 VRB03KT P6SM SKC


KSLC 282320Z 2900/3006 35006KT P6SM FEW250
  FM290600 13005KT P6SM FEW250
  FM291800 32005KT P6SM SKC


KSTL 282320Z 2900/3006 18005KT P6SM BKN200
  FM292200 30008KT P6SM OVC070
  FM300200 32013G23KT P6SM OVC030


KTPA 282349Z 2900/3006 31004KT P6SM FEW050 BKN250
  FM290200 VRB03KT P6SM BKN250
  FM290900 VRB03KT P6SM VCFG FEW007 BKN250
  FM291400 16006KT P6SM FEW015 BKN250
  FM291900 20008KT P6SM FEW040 BKN250